Time;durP1;ratioP1;P1;durP2;ratioP2;P2;SDS_P1;SDS_P2;PMS_P1;PMS_P2;Temp;Humidity;BMP_temperature;BMP_pressure;BME280_temperature;BME280_humidity;BME280_pressure;Samples;Min_cycle;Max_cycle;Signal;HPM_P1;HPM_P2
2021/10/23 00:00:36;;;;;;;5.38;2.17;;;18.60;71.00;;;;;;5047270;28;20384;-79
2021/10/23 00:03:02;;;;;;;4.45;2.10;;;18.60;71.00;;;;;;5047453;28;20077;-78
2021/10/23 00:05:28;;;;;;;3.30;1.98;;;18.60;71.00;;;;;;5045384;28;20036;-78
2021/10/23 00:07:54;;;;;;;3.70;1.73;;;18.50;71.00;;;;;;5047444;27;20025;-78
2021/10/23 00:10:20;;;;;;;3.72;1.88;;;18.50;71.00;;;;;;5047203;28;20084;-78
2021/10/23 00:12:46;;;;;;;3.53;2.03;;;18.50;71.00;;;;;;5048051;28;20451;-78
2021/10/23 00:15:11;;;;;;;3.33;1.98;;;18.50;71.00;;;;;;5050806;28;20109;-78
2021/10/23 00:17:37;;;;;;;4.32;2.55;;;18.50;71.00;;;;;;5050428;28;20061;-78
2021/10/23 00:20:03;;;;;;;3.45;2.08;;;18.40;71.00;;;;;;5050786;28;20480;-78
2021/10/23 00:22:30;;;;;;;2.88;1.70;;;18.40;71.00;;;;;;5050259;28;20026;-78
2021/10/23 00:24:56;;;;;;;3.95;2.42;;;18.40;71.00;;;;;;5050577;28;20505;-78
2021/10/23 00:27:21;;;;;;;3.13;2.00;;;18.40;71.00;;;;;;5048606;28;20028;-78
2021/10/23 00:29:47;;;;;;;3.53;1.70;;;18.40;71.00;;;;;;5050767;27;20025;-78
2021/10/23 00:32:13;;;;;;;3.47;2.13;;;18.40;71.00;;;;;;5050526;27;20013;-77
2021/10/23 00:34:39;;;;;;;3.00;1.95;;;18.30;71.00;;;;;;5050378;27;21054;-78
2021/10/23 00:37:04;;;;;;;3.28;1.67;;;18.30;71.00;;;;;;5049982;28;20056;-78
2021/10/23 00:39:30;;;;;;;4.50;2.10;;;18.30;71.10;;;;;;5050127;28;20493;-78
2021/10/23 00:41:56;;;;;;;3.15;2.08;;;18.30;71.10;;;;;;5049799;28;20109;-78
2021/10/23 00:44:28;;;;;;;2.80;1.95;;;18.30;71.00;;;;;;5050053;27;20073;-78
2021/10/23 00:46:54;;;;;;;6.97;2.17;;;18.30;71.10;;;;;;5050155;28;20036;-78
2021/10/23 00:49:19;;;;;;;3.67;2.08;;;18.30;71.10;;;;;;5050151;28;20107;-78
2021/10/23 00:51:45;;;;;;;4.07;1.98;;;18.30;71.20;;;;;;5050446;27;20108;-78
2021/10/23 00:54:12;;;;;;;4.00;2.03;;;18.20;71.10;;;;;;5050079;28;20029;-78
2021/10/23 00:56:37;;;;;;;6.00;2.03;;;18.20;71.10;;;;;;5049657;27;20025;-78
2021/10/23 00:59:05;;;;;;;3.72;1.92;;;18.20;71.10;;;;;;5050086;28;20048;-78
2021/10/23 01:01:31;;;;;;;4.15;1.65;;;18.20;71.10;;;;;;5049801;28;20021;-78
2021/10/23 01:03:58;;;;;;;3.65;2.03;;;18.20;71.10;;;;;;5049951;28;20442;-79
2021/10/23 01:06:24;;;;;;;2.95;1.80;;;18.10;71.10;;;;;;5049743;28;20074;-77
2021/10/23 01:08:49;;;;;;;4.15;1.90;;;18.20;71.10;;;;;;5050007;28;20028;-78
2021/10/23 01:11:15;;;;;;;4.50;1.98;;;18.20;71.20;;;;;;5049670;28;20072;-78
2021/10/23 01:13:41;;;;;;;4.57;1.95;;;18.10;71.10;;;;;;5047978;28;20445;-78
2021/10/23 01:16:06;;;;;;;3.60;1.83;;;18.10;71.10;;;;;;5049815;28;20029;-78
2021/10/23 01:18:33;;;;;;;3.42;1.73;;;18.10;71.10;;;;;;5049490;28;20039;-78
2021/10/23 01:20:59;;;;;;;2.53;1.50;;;18.10;71.10;;;;;;5049552;28;20023;-79
2021/10/23 01:23:24;;;;;;;3.60;1.70;;;18.10;71.10;;;;;;5048907;28;20392;-78
2021/10/23 01:25:50;;;;;;;3.35;2.00;;;18.10;71.00;;;;;;5049557;28;20025;-78
2021/10/23 01:28:16;;;;;;;6.15;1.98;;;18.10;71.00;;;;;;5049166;28;20124;-78
2021/10/23 01:30:42;;;;;;;2.65;1.65;;;18.00;71.00;;;;;;5049264;28;20096;-78
2021/10/23 01:33:08;;;;;;;3.17;1.52;;;18.00;71.00;;;;;;5049590;28;20070;-78
2021/10/23 01:35:33;;;;;;;3.30;1.95;;;18.00;71.00;;;;;;5049276;28;20025;-77
2021/10/23 01:37:59;;;;;;;3.15;2.05;;;18.00;71.00;;;;;;5049305;28;20396;-79
2021/10/23 01:40:32;;;;;;;2.95;1.80;;;18.00;71.00;;;;;;5049013;28;20044;-78
2021/10/23 01:42:58;;;;;;;4.10;2.25;;;18.00;71.70;;;;;;5048500;28;20037;-78
2021/10/23 01:45:24;;;;;;;2.95;1.90;;;18.00;71.00;;;;;;5047587;28;20116;-78
2021/10/23 01:47:50;;;;;;;4.38;2.33;;;18.00;71.70;;;;;;5049304;28;20028;-77
2021/10/23 01:50:18;;;;;;;5.32;2.30;;;18.00;71.00;;;;;;5049539;28;20021;-77
2021/10/23 01:52:44;;;;;;;3.67;1.83;;;18.00;71.00;;;;;;5049032;28;20024;-79
2021/10/23 01:55:12;;;;;;;3.75;2.00;;;17.90;70.90;;;;;;5049247;28;20478;-78
2021/10/23 01:57:39;;;;;;;3.38;1.80;;;18.00;71.00;;;;;;5048350;27;20105;-78
2021/10/23 02:00:06;;;;;;;4.40;2.17;;;17.90;70.90;;;;;;5049158;28;20089;-78
2021/10/23 02:02:31;;;;;;;4.13;1.67;;;17.90;70.90;;;;;;5048740;28;20082;-79
2021/10/23 02:04:57;;;;;;;3.50;1.92;;;17.90;70.90;;;;;;5049079;28;20036;-78
2021/10/23 02:07:22;;;;;;;3.85;2.03;;;17.90;70.90;;;;;;5048787;28;20025;-78
2021/10/23 02:09:48;;;;;;;3.38;1.80;;;17.90;71.00;;;;;;5049289;28;20028;-78
2021/10/23 02:12:14;;;;;;;4.55;1.70;;;17.90;71.00;;;;;;5048882;28;20032;-78
2021/10/23 02:14:39;;;;;;;3.80;1.80;;;17.90;70.90;;;;;;5048734;28;20495;-78
2021/10/23 02:17:05;;;;;;;3.55;1.95;;;17.90;70.90;;;;;;5048781;28;20029;-78
2021/10/23 02:19:31;;;;;;;2.92;1.98;;;17.90;70.90;;;;;;5048503;28;20093;-77
2021/10/23 02:21:57;;;;;;;3.20;1.65;;;17.90;71.00;;;;;;5047479;28;20029;-78
2021/10/23 02:24:23;;;;;;;3.70;1.95;;;17.80;70.90;;;;;;5048499;28;20027;-77
2021/10/23 02:26:49;;;;;;;3.85;2.15;;;17.80;70.90;;;;;;5048224;27;20077;-78
2021/10/23 02:29:14;;;;;;;2.90;1.80;;;17.80;70.90;;;;;;5048951;28;20025;-79
2021/10/23 02:31:40;;;;;;;2.88;1.60;;;17.80;70.90;;;;;;5048274;28;20025;-78
2021/10/23 02:34:06;;;;;;;2.78;1.63;;;17.70;70.90;;;;;;5048633;28;20092;-78
2021/10/23 02:36:32;;;;;;;3.80;1.98;;;17.80;71.00;;;;;;5047451;28;20021;-78
2021/10/23 02:38:58;;;;;;;3.72;1.73;;;17.80;71.00;;;;;;5048577;28;20029;-78
2021/10/23 02:41:25;;;;;;;3.58;1.73;;;17.80;71.00;;;;;;5048360;28;20036;-78
2021/10/23 02:43:55;;;;;;;2.92;1.92;;;17.80;71.00;;;;;;5048078;27;20381;-78
2021/10/23 02:46:21;;;;;;;3.00;1.40;;;17.70;71.00;;;;;;5048036;27;20066;-78
2021/10/23 02:48:47;;;;;;;4.57;1.75;;;17.70;70.90;;;;;;5048693;28;20032;-79
2021/10/23 02:51:13;;;;;;;3.25;1.80;;;17.70;70.90;;;;;;5048359;28;20013;-78
2021/10/23 02:53:39;;;;;;;2.97;1.52;;;17.70;70.90;;;;;;5048124;28;20059;-78
2021/10/23 02:56:05;;;;;;;3.78;2.00;;;17.70;70.90;;;;;;5046622;28;20032;-78
2021/10/23 02:58:31;;;;;;;3.08;1.70;;;17.70;70.90;;;;;;5047471;28;20037;-78
2021/10/23 03:00:57;;;;;;;3.88;1.90;;;17.70;70.90;;;;;;5046826;28;20079;-78
2021/10/23 03:03:22;;;;;;;5.30;1.73;;;17.70;70.90;;;;;;5048138;28;20029;-78
2021/10/23 03:05:48;;;;;;;3.22;1.80;;;17.70;71.00;;;;;;5048299;28;20029;-78
2021/10/23 03:08:15;;;;;;;3.67;1.55;;;17.70;71.00;;;;;;5048546;28;20033;-79
2021/10/23 03:10:41;;;;;;;5.85;2.00;;;17.70;71.00;;;;;;5047802;28;20485;-79
2021/10/23 03:13:07;;;;;;;2.80;1.65;;;17.60;71.00;;;;;;5047475;28;20029;-78
2021/10/23 03:15:33;;;;;;;3.42;1.83;;;17.60;70.90;;;;;;5047840;27;20085;-78
2021/10/23 03:17:59;;;;;;;4.63;1.80;;;17.60;71.00;;;;;;5048050;28;20086;-78
2021/10/23 03:20:25;;;;;;;3.45;1.90;;;17.60;70.90;;;;;;5047918;28;20025;-78
2021/10/23 03:22:50;;;;;;;4.47;1.85;;;17.60;70.90;;;;;;5048088;27;20100;-77
2021/10/23 03:25:16;;;;;;;3.58;1.38;;;17.60;71.00;;;;;;5048279;28;20438;-78
2021/10/23 03:27:42;;;;;;;3.33;1.65;;;17.60;71.00;;;;;;5046912;28;20029;-78
2021/10/23 03:30:08;;;;;;;4.32;1.88;;;17.60;71.00;;;;;;5047797;28;20110;-78
2021/10/23 03:32:34;;;;;;;2.65;1.38;;;17.60;71.00;;;;;;5047642;28;20017;-78
2021/10/23 03:35:00;;;;;;;3.28;1.60;;;17.60;71.00;;;;;;5047881;28;20531;-78
2021/10/23 03:37:30;;;;;;;2.28;1.33;;;17.60;71.00;;;;;;5046258;28;20116;-78
2021/10/23 03:39:57;;;;;;;3.75;2.00;;;17.60;71.00;;;;;;5047761;28;20029;-78
2021/10/23 03:42:23;;;;;;;2.85;1.63;;;17.60;71.00;;;;;;5046908;28;20480;-78
2021/10/23 03:44:49;;;;;;;2.75;1.50;;;17.60;71.00;;;;;;5047746;27;20040;-78
2021/10/23 03:47:16;;;;;;;2.80;1.40;;;17.60;71.00;;;;;;5049833;28;20055;-78
2021/10/23 03:49:45;;;;;;;3.38;1.45;;;17.60;71.00;;;;;;5050995;28;20025;-78
2021/10/23 03:52:11;;;;;;;2.60;1.40;;;17.60;71.00;;;;;;5051129;27;20026;-78
2021/10/23 03:54:37;;;;;;;3.80;2.03;;;17.60;71.00;;;;;;5050968;27;20552;-78
2021/10/23 03:57:06;;;;;;;2.92;1.85;;;17.60;70.90;;;;;;5049352;28;20025;-78
2021/10/23 03:59:32;;;;;;;3.22;1.20;;;17.60;70.90;;;;;;5050841;28;20492;-79
2021/10/23 04:01:58;;;;;;;2.75;1.25;;;17.60;70.80;;;;;;5051157;28;20098;-80
2021/10/23 04:04:24;;;;;;;2.70;1.52;;;17.60;70.80;;;;;;5050834;28;20025;-79
2021/10/23 04:06:50;;;;;;;3.20;1.98;;;17.60;71.20;;;;;;5051123;28;20025;-78
2021/10/23 04:09:17;;;;;;;3.78;1.90;;;17.60;70.70;;;;;;5051354;28;20032;-78
2021/10/23 04:11:42;;;;;;;3.60;1.63;;;17.60;70.70;;;;;;5050590;28;20049;-78
2021/10/23 04:14:08;;;;;;;3.17;1.55;;;17.60;70.70;;;;;;5050259;28;20547;-79
2021/10/23 04:16:34;;;;;;;2.50;1.30;;;17.70;70.80;;;;;;5050515;27;20021;-78
2021/10/23 04:18:59;;;;;;;3.33;1.50;;;17.70;70.70;;;;;;5050761;27;20037;-79
2021/10/23 04:21:25;;;;;;;3.72;1.60;;;17.60;70.60;;;;;;5050498;27;20040;-79
2021/10/23 04:23:51;;;;;;;3.55;1.70;;;17.70;70.70;;;;;;5050630;27;20021;-78
2021/10/23 04:26:17;;;;;;;2.80;1.48;;;17.60;70.60;;;;;;5050537;28;20021;-78
2021/10/23 04:28:42;;;;;;;3.08;1.42;;;17.70;70.60;;;;;;5049791;28;20134;-77
2021/10/23 04:31:08;;;;;;;3.70;1.83;;;17.60;70.60;;;;;;5049308;28;20152;-77
2021/10/23 04:33:33;;;;;;;3.72;1.95;;;17.70;70.60;;;;;;5049817;28;20480;-77
2021/10/23 04:35:59;;;;;;;3.30;1.60;;;17.70;70.60;;;;;;5050459;28;20086;-77
2021/10/23 04:38:25;;;;;;;3.25;1.70;;;17.70;70.60;;;;;;5050123;27;20040;-77
2021/10/23 04:40:50;;;;;;;3.17;1.90;;;17.70;70.50;;;;;;5050346;28;20021;-77
2021/10/23 04:43:16;;;;;;;2.88;1.65;;;17.70;70.50;;;;;;5050122;28;20043;-78
2021/10/23 04:45:42;;;;;;;2.45;1.52;;;17.70;70.50;;;;;;5050016;28;20397;-78
2021/10/23 04:48:07;;;;;;;3.67;1.73;;;17.70;70.50;;;;;;5050272;28;20021;-78
2021/10/23 04:50:33;;;;;;;1.90;1.30;;;17.70;70.40;;;;;;5050023;28;20025;-78
2021/10/23 04:52:58;;;;;;;3.17;1.80;;;17.70;70.40;;;;;;5050218;28;20025;-78
2021/10/23 04:55:24;;;;;;;3.45;1.90;;;17.70;70.30;;;;;;5049752;28;20067;-78
2021/10/23 04:57:50;;;;;;;3.55;1.75;;;17.70;70.30;;;;;;5049257;28;20041;-78
2021/10/23 05:00:16;;;;;;;3.53;1.63;;;17.70;70.30;;;;;;5049604;28;20480;-79
2021/10/23 05:02:41;;;;;;;2.97;1.63;;;17.70;70.30;;;;;;5049767;28;20500;-78
2021/10/23 05:05:08;;;;;;;4.05;1.45;;;17.70;70.20;;;;;;5049987;28;20025;-78
2021/10/23 05:07:33;;;;;;;3.30;1.50;;;17.70;70.20;;;;;;5049725;27;20025;-78
2021/10/23 05:09:59;;;;;;;2.78;1.42;;;17.70;70.10;;;;;;5049879;28;20029;-78
2021/10/23 05:12:25;;;;;;;2.72;1.42;;;17.70;70.20;;;;;;5048017;28;20028;-77
2021/10/23 05:14:51;;;;;;;2.22;1.25;;;17.70;70.10;;;;;;5049819;28;20029;-77
2021/10/23 05:17:16;;;;;;;3.47;1.50;;;17.70;70.10;;;;;;5050063;28;20021;-77
2021/10/23 05:19:42;;;;;;;4.53;1.70;;;17.70;70.20;;;;;;5048257;28;20392;-78
2021/10/23 05:22:08;;;;;;;3.35;1.80;;;17.70;70.20;;;;;;5049797;28;20025;-78
2021/10/23 05:24:34;;;;;;;3.08;1.23;;;17.70;70.10;;;;;;5049414;28;20025;-78
2021/10/23 05:26:59;;;;;;;3.15;1.60;;;17.70;70.20;;;;;;5048868;28;20025;-78
2021/10/23 05:29:25;;;;;;;2.97;1.67;;;17.70;70.10;;;;;;5049424;28;20025;-78
2021/10/23 05:31:51;;;;;;;3.38;1.60;;;17.70;70.10;;;;;;5049640;28;20476;-78
2021/10/23 05:34:16;;;;;;;2.80;1.67;;;17.70;70.80;;;;;;5049873;28;20476;-78
2021/10/23 05:36:42;;;;;;;4.00;1.38;;;17.70;70.10;;;;;;5049352;28;20518;-78
2021/10/23 05:39:08;;;;;;;2.95;1.55;;;17.70;70.00;;;;;;5049348;28;20033;-78
2021/10/23 05:41:34;;;;;;;4.63;1.52;;;17.70;70.00;;;;;;5049279;28;20033;-78
2021/10/23 05:44:00;;;;;;;4.47;1.65;;;17.70;69.90;;;;;;5048864;28;20384;-78
2021/10/23 05:46:26;;;;;;;3.95;1.50;;;17.70;69.90;;;;;;5048858;27;20041;-78
2021/10/23 05:48:52;;;;;;;2.90;1.38;;;17.80;70.00;;;;;;5048110;27;20017;-77
2021/10/23 05:51:17;;;;;;;3.67;1.55;;;17.80;70.00;;;;;;5049568;28;20064;-78
2021/10/23 05:53:44;;;;;;;3.88;1.83;;;17.70;69.90;;;;;;5048932;28;20561;-78
2021/10/23 05:56:09;;;;;;;2.75;1.42;;;17.80;70.00;;;;;;5049418;28;20040;-78
2021/10/23 05:58:35;;;;;;;2.38;1.42;;;17.80;69.90;;;;;;5048223;28;20041;-77
2021/10/23 06:01:06;;;;;;;3.45;1.40;;;17.80;69.80;;;;;;5048880;28;20088;-77
2021/10/23 06:03:35;;;;;;;3.70;1.75;;;17.90;69.90;;;;;;5048955;28;20017;-78
2021/10/23 06:06:02;;;;;;;2.45;1.48;;;17.90;69.80;;;;;;5049115;28;20025;-78
2021/10/23 06:08:29;;;;;;;3.33;1.50;;;17.90;69.80;;;;;;5048789;27;20017;-78
2021/10/23 06:10:55;;;;;;;2.60;1.45;;;17.90;69.80;;;;;;5049039;28;20033;-78
2021/10/23 06:13:23;;;;;;;2.35;1.40;;;17.90;69.70;;;;;;5048432;27;20025;-78
2021/10/23 06:15:50;;;;;;;1.92;1.38;;;18.00;69.80;;;;;;5049224;28;20017;-78
2021/10/23 06:18:15;;;;;;;3.65;1.50;;;18.00;69.60;;;;;;5049053;28;20496;-78
2021/10/23 06:20:41;;;;;;;2.30;1.33;;;18.00;69.50;;;;;;5048651;28;20053;-80
2021/10/23 06:23:07;;;;;;;2.50;1.40;;;18.10;70.30;;;;;;5048689;27;20025;-79
2021/10/23 06:25:32;;;;;;;3.42;1.52;;;18.10;69.40;;;;;;5048256;27;20024;-80
2021/10/23 06:27:59;;;;;;;2.50;1.50;;;18.10;69.40;;;;;;5048455;28;20068;-78
2021/10/23 06:30:25;;;;;;;1.85;1.30;;;18.20;69.40;;;;;;5046966;28;20025;-79
2021/10/23 06:32:54;;;;;;;2.47;1.60;;;18.20;69.40;;;;;;5047978;28;20537;-80
2021/10/23 06:35:20;;;;;;;3.35;1.50;;;18.30;69.40;;;;;;5035683;28;20044;-80
2021/10/23 06:37:47;;;;;;;3.72;1.25;;;18.30;69.20;;;;;;5038036;28;20025;-83
2021/10/23 06:40:13;;;;;;;3.47;1.38;;;18.40;69.40;;;;;;5041865;28;20079;-81
2021/10/23 06:42:40;;;;;;;2.90;1.45;;;18.40;69.40;;;;;;5038485;28;20067;-80
2021/10/23 06:45:08;;;;;;;4.32;1.45;;;18.40;69.20;;;;;;5036088;28;20489;-80
2021/10/23 06:47:35;;;;;;;2.97;1.60;;;18.50;69.10;;;;;;5036617;28;20089;-78
2021/10/23 06:50:03;;;;;;;2.40;1.30;;;18.50;69.10;;;;;;5037980;28;20044;-80
2021/10/23 06:52:28;;;;;;;3.35;1.60;;;18.50;69.00;;;;;;5038258;28;20029;-78
2021/10/23 06:54:54;;;;;;;3.72;1.50;;;18.60;69.00;;;;;;5043331;28;20022;-80
2021/10/23 06:57:20;;;;;;;3.45;1.75;;;18.60;69.00;;;;;;5047677;28;20025;-79
2021/10/23 06:59:45;;;;;;;2.83;1.55;;;18.60;68.30;;;;;;5048572;28;20041;-80
2021/10/23 07:02:11;;;;;;;2.78;1.27;;;18.70;68.90;;;;;;5046612;28;20021;-80
2021/10/23 07:04:36;;;;;;;3.03;1.30;;;18.70;68.90;;;;;;5037709;28;20037;-79
2021/10/23 07:07:02;;;;;;;3.10;1.60;;;18.70;68.90;;;;;;5037610;28;20362;-78
2021/10/23 07:09:28;;;;;;;2.35;1.35;;;18.80;69.00;;;;;;5035668;28;20018;-79
2021/10/23 07:11:53;;;;;;;2.72;1.50;;;18.80;69.10;;;;;;5038985;28;20022;-78
2021/10/23 07:14:19;;;;;;;2.80;1.60;;;18.80;69.20;;;;;;5040306;28;20029;-78
2021/10/23 07:16:45;;;;;;;3.40;1.52;;;18.90;69.30;;;;;;5037898;28;20415;-78
2021/10/23 07:19:11;;;;;;;2.85;1.40;;;18.90;69.40;;;;;;5035939;28;20030;-80
2021/10/23 07:21:36;;;;;;;4.68;1.70;;;18.90;69.50;;;;;;5036756;28;20464;-78
2021/10/23 07:24:02;;;;;;;2.90;1.67;;;18.90;69.50;;;;;;5047407;28;20028;-81
2021/10/23 07:26:28;;;;;;;3.22;1.80;;;18.90;69.40;;;;;;5051304;28;20108;-79
2021/10/23 07:28:54;;;;;;;3.15;1.40;;;18.90;69.40;;;;;;5050985;28;20499;-79
2021/10/23 07:31:19;;;;;;;6.40;1.98;;;18.90;69.30;;;;;;5051148;28;20032;-77
2021/10/23 07:33:45;;;;;;;3.70;1.92;;;18.90;69.90;;;;;;5047960;28;20033;-77
2021/10/23 07:36:14;;;;;;;4.65;1.55;;;18.90;69.00;;;;;;5051141;28;20041;-78
2021/10/23 07:38:39;;;;;;;3.30;1.50;;;19.00;68.80;;;;;;5045305;28;20033;-78
2021/10/23 07:41:06;;;;;;;4.35;1.45;;;18.90;68.60;;;;;;5050989;28;20040;-78
2021/10/23 07:43:33;;;;;;;3.17;1.73;;;18.90;68.60;;;;;;5038435;28;20113;-78
2021/10/23 07:45:58;;;;;;;5.38;1.63;;;18.90;68.60;;;;;;5046743;28;20033;-80
2021/10/23 07:48:24;;;;;;;3.33;1.55;;;19.00;68.40;;;;;;5048279;28;20025;-78
2021/10/23 07:50:50;;;;;;;4.65;2.15;;;19.00;68.30;;;;;;5035504;28;20370;-79
2021/10/23 07:53:16;;;;;;;5.40;1.60;;;19.00;68.30;;;;;;5048224;28;20430;-79
2021/10/23 07:55:42;;;;;;;2.33;1.40;;;19.00;68.30;;;;;;5049420;28;20059;-80
2021/10/23 07:58:08;;;;;;;5.18;1.40;;;19.00;68.30;;;;;;5035365;28;20022;-79
2021/10/23 08:00:34;;;;;;;3.85;1.98;;;19.00;68.50;;;;;;5030886;28;20028;-79
2021/10/23 08:03:01;;;;;;;4.13;1.45;;;19.00;68.40;;;;;;5029427;28;20024;-79
2021/10/23 08:05:30;;;;;;;4.03;1.65;;;19.00;68.70;;;;;;5046995;28;20436;-79
2021/10/23 08:07:56;;;;;;;6.28;1.73;;;19.00;69.40;;;;;;5050979;28;20469;-79
2021/10/23 08:10:23;;;;;;;7.60;1.67;;;19.00;69.00;;;;;;5050588;28;20100;-79
2021/10/23 08:12:49;;;;;;;4.00;1.30;;;19.00;69.10;;;;;;5047383;28;20029;-79
2021/10/23 08:15:15;;;;;;;2.72;1.52;;;19.00;69.00;;;;;;5047717;28;20489;-80
2021/10/23 08:17:42;;;;;;;3.17;1.33;;;19.00;69.00;;;;;;5050497;28;20085;-74
2021/10/23 08:20:09;;;;;;;2.85;1.60;;;19.00;69.20;;;;;;5046836;28;20025;-74
2021/10/23 08:22:35;;;;;;;2.90;1.40;;;19.00;69.40;;;;;;5050560;28;20052;-76
2021/10/23 08:25:04;;;;;;;7.93;2.00;;;19.00;69.50;;;;;;5050690;28;20036;-79
2021/10/23 08:27:37;;;;;;;3.60;1.52;;;19.00;69.50;;;;;;5050635;28;20066;-77
2021/10/23 08:30:06;;;;;;;6.78;4.68;;;19.00;69.70;;;;;;5046407;28;20119;-76
2021/10/23 08:32:32;;;;;;;12.43;6.43;;;19.00;70.00;;;;;;5029983;28;20014;-76
2021/10/23 08:34:58;;;;;;;9.82;5.93;;;19.00;71.00;;;;;;5039525;28;20029;-77
2021/10/23 08:37:25;;;;;;;12.55;7.25;;;19.00;70.50;;;;;;5038164;28;20026;-78
2021/10/23 08:39:51;;;;;;;13.27;7.00;;;19.10;70.60;;;;;;5031545;28;20037;-78
2021/10/23 08:42:17;;;;;;;11.00;7.38;;;19.00;70.60;;;;;;5049354;28;20050;-79
2021/10/23 08:44:44;;;;;;;7.63;5.88;;;;;;;;;;5049174;28;20052;-78
2021/10/23 08:47:11;;;;;;;12.52;5.38;;;19.10;70.20;;;;;;5035023;28;20025;-78
2021/10/23 08:49:38;;;;;;;9.30;5.10;;;19.10;70.70;;;;;;5030139;28;20076;-78
2021/10/23 08:52:04;;;;;;;10.38;5.05;;;19.10;70.80;;;;;;5029143;28;20021;-78
2021/10/23 08:54:31;;;;;;;8.35;5.30;;;19.10;70.90;;;;;;5030100;28;20117;-78
2021/10/23 08:57:01;;;;;;;7.07;4.60;;;19.10;70.80;;;;;;5030329;28;20025;-78
2021/10/23 08:59:27;;;;;;;9.82;4.00;;;19.10;70.80;;;;;;5046958;28;20044;-78
2021/10/23 09:02:01;;;;;;;7.00;3.80;;;19.10;70.90;;;;;;5050126;28;20061;-80
2021/10/23 09:04:30;;;;;;;7.70;3.85;;;19.10;70.80;;;;;;5037782;28;20030;-79
2021/10/23 09:07:11;;;;;;;8.95;4.10;;;19.10;70.80;;;;;;5041529;28;20054;-81
2021/10/23 09:09:52;;;;;;;7.45;3.35;;;19.10;70.80;;;;;;5049624;28;20047;-78
2021/10/23 09:12:33;;;;;;;7.88;3.30;;;19.10;70.80;;;;;;5047690;28;20026;-79
2021/10/23 09:15:00;;;;;;;8.77;3.20;;;19.20;70.90;;;;;;5041127;28;20079;-79
2021/10/23 09:17:26;;;;;;;8.38;3.85;;;19.20;70.90;;;;;;5035035;28;20042;-79
2021/10/23 09:19:56;;;;;;;7.07;3.22;;;19.20;70.80;;;;;;5029865;28;20029;-78
2021/10/23 09:22:32;;;;;;;6.68;2.95;;;19.20;70.80;;;;;;5043110;28;20021;-78
2021/10/23 09:25:22;;;;;;;5.82;3.03;;;19.20;70.80;;;;;;5029809;28;20018;-77
2021/10/23 09:28:02;;;;;;;8.50;2.88;;;19.20;70.80;;;;;;5030069;28;20358;-78
2021/10/23 09:30:41;;;;;;;7.80;2.80;;;19.20;72.50;;;;;;5030691;28;20040;-81
2021/10/23 09:33:09;;;;;;;6.03;2.55;;;19.20;71.50;;;;;;5038454;28;20507;-81
2021/10/23 09:35:42;;;;;;;6.50;2.72;;;19.30;71.50;;;;;;5049108;27;20442;-80
2021/10/23 09:38:10;;;;;;;9.40;2.60;;;19.30;71.20;;;;;;5047133;28;20024;-79
2021/10/23 09:40:38;;;;;;;12.10;3.50;;;19.30;71.20;;;;;;5045650;28;20113;-79
2021/10/23 09:43:10;;;;;;;11.30;2.38;;;19.30;71.20;;;;;;5048555;28;20092;-79
2021/10/23 09:45:37;;;;;;;7.05;2.47;;;19.30;71.20;;;;;;5045154;28;20044;-78
2021/10/23 09:48:06;;;;;;;7.38;2.40;;;19.40;71.10;;;;;;5044068;28;20089;-78
2021/10/23 09:50:31;;;;;;;6.82;2.63;;;19.40;71.80;;;;;;5038588;28;20458;-77
2021/10/23 09:53:01;;;;;;;5.32;2.20;;;19.40;72.20;;;;;;5040721;28;20033;-78
2021/10/23 09:55:53;;;;;;;7.00;2.15;;;19.40;72.20;;;;;;5028852;28;20072;-77
2021/10/23 09:58:21;;;;;;;9.15;2.42;;;19.40;71.70;;;;;;5039515;28;20488;-77
2021/10/23 10:00:47;;;;;;;5.57;1.98;;;19.50;71.50;;;;;;5049368;27;20021;-78
2021/10/23 10:03:13;;;;;;;4.82;1.98;;;19.50;71.60;;;;;;5049005;28;20024;-78
2021/10/23 10:05:40;;;;;;;6.75;1.92;;;19.50;71.60;;;;;;5047417;28;20128;-77
2021/10/23 10:08:12;;;;;;;4.03;2.05;;;19.50;71.30;;;;;;5048850;28;20037;-78
2021/10/23 10:10:40;;;;;;;3.45;1.60;;;19.50;71.30;;;;;;5048770;28;20025;-77
2021/10/23 10:13:06;;;;;;;4.53;1.85;;;19.50;71.30;;;;;;5048543;28;20029;-78
2021/10/23 10:15:34;;;;;;;5.85;1.83;;;19.50;71.30;;;;;;5048749;28;20032;-78
2021/10/23 10:18:02;;;;;;;8.25;2.03;;;19.50;71.30;;;;;;5048707;28;20021;-78
2021/10/23 10:20:28;;;;;;;7.20;1.73;;;19.50;71.30;;;;;;5048543;28;20050;-78
2021/10/23 10:22:54;;;;;;;3.75;1.45;;;19.50;71.30;;;;;;5048964;28;20047;-77
2021/10/23 10:25:26;;;;;;;6.43;1.85;;;19.50;71.30;;;;;;5048602;28;20029;-78
2021/10/23 10:27:53;;;;;;;3.25;1.67;;;19.50;71.30;;;;;;5048775;28;20031;-78
2021/10/23 10:30:30;;;;;;;4.35;1.80;;;19.50;71.20;;;;;;5048442;28;20032;-78
2021/10/23 10:33:40;;;;;;;7.20;1.50;;;19.50;71.10;;;;;;5048696;28;20031;-77
2021/10/23 10:36:21;;;;;;;5.88;1.58;;;19.50;71.10;;;;;;5048601;28;20029;-77
2021/10/23 10:44:11;;;;;;;4.75;1.60;;;19.60;71.00;;;;;;5048176;28;20024;-77
2021/10/23 10:46:55;;;;;;;4.18;1.58;;;19.50;70.80;;;;;;5048166;28;20111;-77
2021/10/23 10:49:50;;;;;;;7.80;1.70;;;19.60;70.90;;;;;;5048297;28;20110;-77
2021/10/23 10:52:41;;;;;;;4.40;1.43;;;19.60;70.80;;;;;;5048850;28;20025;-77
2021/10/23 10:55:18;;;;;;;3.10;1.00;;;19.70;70.80;;;;;;5047265;28;20048;-77
2021/10/23 10:58:05;;;;;;;4.43;1.50;;;19.70;70.90;;;;;;5045905;28;20029;-77
2021/10/23 11:00:46;;;;;;;5.88;1.08;;;19.70;70.60;;;;;;5047977;28;20060;-77
2021/10/23 11:04:03;;;;;;;4.00;1.58;;;19.80;70.60;;;;;;5047448;28;20047;-78
2021/10/23 11:06:29;;;;;;;5.63;1.42;;;20.00;70.80;;;;;;5057000;28;20064;-76
2021/10/23 11:11:45;;;;;;;4.55;1.50;;;20.70;69.10;;;;;;5038226;28;20476;-77
2021/10/23 11:16:56;;;;;;;8.65;1.58;;;21.70;66.60;;;;;;5048407;28;20033;-75
2021/10/23 11:19:22;;;;;;;4.05;1.40;;;22.10;65.20;;;;;;5047319;28;20048;-75
2021/10/23 11:21:50;;;;;;;2.63;1.10;;;22.60;63.90;;;;;;5037427;28;20022;-76
2021/10/23 11:24:16;;;;;;;5.38;1.30;;;23.00;62.90;;;;;;5028450;28;20063;-76
2021/10/23 11:26:49;;;;;;;5.18;1.40;;;23.30;61.50;;;;;;5037067;28;20057;-76
2021/10/23 11:29:33;;;;;;;2.33;1.30;;;23.70;60.60;;;;;;5047842;28;20120;-76
2021/10/23 11:32:00;;;;;;;9.13;1.63;;;24.10;59.40;;;;;;5041584;28;20022;-77
2021/10/23 11:34:27;;;;;;;5.43;1.10;;;24.50;58.70;;;;;;5029965;28;20450;-75
2021/10/23 11:37:02;;;;;;;4.95;1.23;;;24.80;58.20;;;;;;5028020;28;20048;-79
2021/10/23 11:39:35;;;;;;;6.22;1.60;;;25.10;58.60;;;;;;5027603;28;20457;-81
2021/10/23 11:42:20;;;;;;;11.45;1.85;;;25.50;58.70;;;;;;5039389;28;20057;-82
2021/10/23 11:44:46;;;;;;;7.47;1.90;;;25.80;57.40;;;;;;5037485;28;20034;-81
2021/10/23 11:47:16;;;;;;;6.10;1.95;;;26.00;57.00;;;;;;5027760;28;20323;-83
2021/10/23 11:49:42;;;;;;;6.07;1.40;;;26.30;56.50;;;;;;5027387;28;20060;-83
2021/10/23 11:52:08;;;;;;;4.75;1.00;;;26.60;55.90;;;;;;5027763;28;20124;-80
2021/10/23 11:54:43;;;;;;;6.40;1.77;;;26.80;55.70;;;;;;5030719;28;20026;-81
2021/10/23 11:57:10;;;;;;;4.85;1.63;;;27.00;55.20;;;;;;5041985;28;20039;-80
2021/10/23 11:59:36;;;;;;;10.57;1.60;;;27.30;54.60;;;;;;5047173;28;20033;-84
2021/10/23 12:02:13;;;;;;;11.07;1.20;;;27.50;54.30;;;;;;5036697;28;20028;-79
2021/10/23 12:04:39;;;;;;;8.30;1.23;;;27.50;54.20;;;;;;5031871;28;20567;-85
2021/10/23 12:07:05;;;;;;;5.93;1.20;;;27.70;54.10;;;;;;5037019;28;20100;-84
2021/10/23 12:09:30;;;;;;;5.72;1.63;;;28.00;53.80;;;;;;5040075;28;20021;-81
2021/10/23 12:12:04;;;;;;;4.22;1.23;;;28.10;53.00;;;;;;5040882;28;20037;-80
2021/10/23 12:14:30;;;;;;;7.70;1.73;;;27.80;53.60;;;;;;5037948;28;20507;-80
2021/10/23 12:16:57;;;;;;;6.20;1.50;;;28.00;53.50;;;;;;5038383;28;20017;-81
2021/10/23 12:19:40;;;;;;;3.58;1.05;;;28.00;53.10;;;;;;5038836;28;20165;-80
2021/10/23 12:22:14;;;;;;;5.55;1.42;;;27.60;54.10;;;;;;5040123;28;20045;-80
2021/10/23 12:24:48;;;;;;;3.17;0.93;;;27.10;54.20;;;;;;5041257;28;20033;-80
2021/10/23 12:27:28;;;;;;;5.43;1.67;;;26.50;55.70;;;;;;5042651;28;20021;-82
2021/10/23 12:29:55;;;;;;;5.95;1.92;;;26.50;56.20;;;;;;5039985;28;20078;-83
2021/10/23 12:32:26;;;;;;;3.35;1.33;;;26.30;55.80;;;;;;5038313;28;20366;-81
2021/10/23 12:34:53;;;;;;;5.88;1.70;;;25.80;57.10;;;;;;5037822;28;20020;-82
2021/10/23 12:37:27;;;;;;;5.95;1.42;;;25.30;58.20;;;;;;5042172;28;20040;-81
2021/10/23 12:40:05;;;;;;;8.05;1.30;;;24.90;59.00;;;;;;5039560;28;20497;-81
2021/10/23 12:42:36;;;;;;;5.25;1.30;;;24.60;59.50;;;;;;5041263;28;20602;-80
2021/10/23 12:45:03;;;;;;;2.38;1.25;;;24.30;60.30;;;;;;5040084;28;20026;-81
2021/10/23 12:47:29;;;;;;;7.55;0.98;;;24.10;61.00;;;;;;5036396;28;20017;-82
2021/10/23 12:49:55;;;;;;;3.45;1.20;;;23.90;61.40;;;;;;5040236;28;20254;-81
2021/10/23 12:52:21;;;;;;;7.82;1.90;;;23.70;61.80;;;;;;5037257;28;20017;-81
2021/10/23 12:54:46;;;;;;;4.22;1.00;;;23.60;62.60;;;;;;5038012;28;20025;-81
2021/10/23 12:57:12;;;;;;;5.25;1.10;;;23.50;62.80;;;;;;5037133;28;20075;-81
2021/10/23 12:59:38;;;;;;;2.63;0.80;;;23.40;63.00;;;;;;5039199;28;20073;-80
2021/10/23 13:02:03;;;;;;;4.65;1.13;;;23.30;63.20;;;;;;5038332;28;20045;-80